createdAt,value
2019-03-29T00:00:32.579Z,5.50
2019-03-29T00:05:35.985Z,5.30
2019-03-29T00:10:39.140Z,5.50
2019-03-29T00:15:43.431Z,5.37
2019-03-29T00:20:47.162Z,5.67
2019-03-29T00:25:50.256Z,5.77
2019-03-29T00:30:53.225Z,5.90
2019-03-29T00:35:56.533Z,6.10
2019-03-29T00:41:00.105Z,6.47
2019-03-29T00:46:03.155Z,5.70
2019-03-29T00:51:06.291Z,6.03
2019-03-29T00:56:09.639Z,6.53
2019-03-29T01:01:13.981Z,6.13
2019-03-29T01:06:17.132Z,6.67
2019-03-29T01:11:20.263Z,7.63
2019-03-29T01:16:23.867Z,6.80
2019-03-29T01:21:26.969Z,9.10
2019-03-29T01:26:30.123Z,8.97
2019-03-29T01:31:33.102Z,9.77
2019-03-29T01:36:36.090Z,9.43
2019-03-29T01:41:39.354Z,9.67
2019-03-29T01:46:42.873Z,9.93
2019-03-29T01:51:46.179Z,9.83
2019-03-29T01:56:49.809Z,9.47
2019-03-29T02:01:54.942Z,9.20
2019-03-29T02:06:59.121Z,11.10
2019-03-29T02:12:03.425Z,11.07
2019-03-29T02:17:06.425Z,9.70
2019-03-29T02:22:09.828Z,9.83
2019-03-29T02:27:13.050Z,10.90
2019-03-29T02:32:16.103Z,10.83
2019-03-29T02:37:19.161Z,12.47
2019-03-29T02:42:22.399Z,10.67
2019-03-29T02:47:26.376Z,11.53
2019-03-29T02:52:29.522Z,11.97
2019-03-29T02:57:32.507Z,12.40
2019-03-29T03:02:35.544Z,12.13
2019-03-29T03:07:38.622Z,12.50
2019-03-29T03:12:41.905Z,11.73
2019-03-29T03:17:45.385Z,11.80
2019-03-29T03:22:48.297Z,12.23
2019-03-29T03:27:51.431Z,12.77
2019-03-29T03:32:54.541Z,12.00
2019-03-29T03:37:57.596Z,11.77
2019-03-29T03:43:00.721Z,12.23
2019-03-29T03:48:03.674Z,12.43
2019-03-29T03:53:06.801Z,11.77
2019-03-29T03:58:11.852Z,12.27
2019-03-29T04:03:14.978Z,13.07
2019-03-29T04:08:18.095Z,13.00
2019-03-29T04:13:21.448Z,12.93
2019-03-29T04:18:24.431Z,8.93
2019-03-29T04:23:27.777Z,12.43
2019-03-29T04:28:30.966Z,12.60
2019-03-29T04:33:34.058Z,14.30
2019-03-29T04:38:37.206Z,12.13
2019-03-29T04:43:41.961Z,13.77
2019-03-29T04:48:45.136Z,12.73
2019-03-29T04:53:48.194Z,13.23
2019-03-29T04:58:51.340Z,13.57
2019-03-29T05:03:54.391Z,14.27
2019-03-29T05:08:57.550Z,13.67
2019-03-29T05:14:00.688Z,13.67
2019-03-29T05:19:03.739Z,13.27
2019-03-29T05:24:07.624Z,12.73
2019-03-29T05:29:10.696Z,12.97
2019-03-29T05:34:14.148Z,13.90
2019-03-29T05:39:17.281Z,13.47
2019-03-29T05:44:20.248Z,12.80
2019-03-29T05:49:23.191Z,13.07
2019-03-29T06:00:15.949Z,11.90
2019-03-29T06:05:19.743Z,13.70
2019-03-29T06:10:22.703Z,13.80
2019-03-29T06:15:26.039Z,14.80
2019-03-29T06:20:29.047Z,13.67
2019-03-29T06:25:33.304Z,12.30
2019-03-29T06:30:36.210Z,14.33
2019-03-29T06:35:42.027Z,13.27
2019-03-29T06:40:44.887Z,14.00
2019-03-29T06:45:48.457Z,13.23
2019-03-29T06:50:51.486Z,13.30
2019-03-29T06:55:59.106Z,13.10
2019-03-29T07:01:01.571Z,12.73
2019-03-29T07:06:04.564Z,12.70
2019-03-29T07:11:17.115Z,12.97
2019-03-29T07:16:12.699Z,12.83
2019-03-29T07:21:21.599Z,14.90
2019-03-29T07:26:21.213Z,12.37
2019-03-29T07:37:27.065Z,11.10
2019-03-29T07:42:31.967Z,12.10
2019-03-29T07:47:35.973Z,9.10
2019-03-29T07:52:39.387Z,9.80
2019-03-29T07:57:42.787Z,9.20
2019-03-29T08:02:45.607Z,9.17
2019-03-29T08:07:48.995Z,8.67
2019-03-29T08:12:52.671Z,9.23
2019-03-29T08:17:55.581Z,7.27
2019-03-29T08:22:59.619Z,7.33
2019-03-29T08:28:02.741Z,7.30
2019-03-29T08:33:05.933Z,7.10
2019-03-29T08:38:09.980Z,7.33
2019-03-29T08:43:12.893Z,7.00
2019-03-29T08:48:15.845Z,7.17
2019-03-29T08:53:18.781Z,7.03
2019-03-29T08:58:23.008Z,7.07
2019-03-29T09:03:26.059Z,6.93
2019-03-29T09:08:29.628Z,6.50
2019-03-29T09:13:32.625Z,6.57
2019-03-29T09:18:35.619Z,7.30
2019-03-29T09:23:38.712Z,6.83
2019-03-29T09:28:42.946Z,6.60
2019-03-29T09:33:47.560Z,5.60
2019-03-29T09:38:50.763Z,6.53
2019-03-29T09:43:54.506Z,6.03
2019-03-29T09:48:57.787Z,5.70
2019-03-29T09:54:00.759Z,4.80
2019-03-29T09:59:24.235Z,5.33
2019-03-29T10:04:29.362Z,4.90
2019-03-29T10:09:32.800Z,4.50
2019-03-29T10:14:35.769Z,5.03
2019-03-29T10:19:38.841Z,5.00
2019-03-29T10:24:41.774Z,6.23
2019-03-29T10:29:45.689Z,5.10
2019-03-29T10:34:48.784Z,5.93
2019-03-29T10:39:51.831Z,6.13
2019-03-29T10:44:55.755Z,5.83
2019-03-29T10:50:00.393Z,6.00
2019-03-29T10:55:03.608Z,6.37
2019-03-29T11:00:11.723Z,6.17
2019-03-29T11:05:15.662Z,5.80
2019-03-29T11:10:29.490Z,6.13
2019-03-29T11:15:32.699Z,6.60
2019-03-29T11:20:35.830Z,7.00
2019-03-29T11:25:38.828Z,5.80
2019-03-29T11:30:43.094Z,5.83
2019-03-29T11:35:47.524Z,5.70
2019-03-29T11:40:55.327Z,6.57
2019-03-29T11:45:58.748Z,6.07
2019-03-29T11:51:01.995Z,5.77
2019-03-29T11:56:04.956Z,5.80
2019-03-29T12:01:07.859Z,5.53
2019-03-29T12:06:11.007Z,5.57
2019-03-29T12:11:14.058Z,6.47
2019-03-29T12:16:17.547Z,6.30
2019-03-29T12:21:20.554Z,6.00
2019-03-29T12:26:23.487Z,6.80
2019-03-29T12:31:26.611Z,5.93
2019-03-29T12:36:30.539Z,6.00
2019-03-29T12:41:37.660Z,6.53
2019-03-29T12:52:42.219Z,6.17
2019-03-29T12:57:45.325Z,6.67
2019-03-29T13:02:48.256Z,6.90
2019-03-29T13:07:53.234Z,6.63
2019-03-29T13:13:00.730Z,6.53
2019-03-29T13:18:04.224Z,6.40
2019-03-29T13:23:07.157Z,6.53
2019-03-29T13:28:10.130Z,5.63
2019-03-29T13:33:13.065Z,5.90
2019-03-29T13:38:20.162Z,6.37
2019-03-29T13:43:21.995Z,5.83
2019-03-29T13:48:24.947Z,6.13
2019-03-29T13:53:27.855Z,6.17
2019-03-29T13:58:30.783Z,5.57
2019-03-29T14:03:34.455Z,6.33
2019-03-29T14:08:37.484Z,5.80
2019-03-29T14:13:40.458Z,5.17
2019-03-29T14:18:44.079Z,5.67
2019-03-29T14:23:48.989Z,6.23
2019-03-29T14:28:51.906Z,6.00
2019-03-29T14:33:54.774Z,5.50
2019-03-29T14:38:58.807Z,5.60
2019-03-29T14:44:01.787Z,5.40
2019-03-29T14:49:04.710Z,5.92
2019-03-29T14:54:07.677Z,6.12
2019-03-29T14:59:15.446Z,5.85
2019-03-29T15:04:18.603Z,5.72
2019-03-29T15:09:22.626Z,5.75
2019-03-29T15:14:32.369Z,5.90
2019-03-29T15:19:35.338Z,6.45
2019-03-29T15:24:38.270Z,6.17
2019-03-29T15:29:41.627Z,5.75
2019-03-29T15:34:45.232Z,5.80
2019-03-29T15:39:48.356Z,5.90
2019-03-29T15:44:51.312Z,5.97
2019-03-29T15:55:55.956Z,7.17
2019-03-29T16:00:59.088Z,5.80
2019-03-29T16:11:48.434Z,13.68
2019-03-29T16:28:26.337Z,6.05
2019-03-29T16:33:29.298Z,6.47
2019-03-29T16:38:32.339Z,6.70
2019-03-29T16:43:36.279Z,6.03
2019-03-29T16:48:39.360Z,6.10
2019-03-29T16:53:42.336Z,6.97
2019-03-29T16:58:45.219Z,5.78
2019-03-29T17:09:35.781Z,6.87
2019-03-29T17:20:25.502Z,7.13
2019-03-29T17:25:28.403Z,6.83
2019-03-29T17:30:37.805Z,7.10
2019-03-29T17:35:40.988Z,7.70
2019-03-29T17:40:43.933Z,7.03
2019-03-29T17:45:47.237Z,7.33
2019-03-29T17:50:50.212Z,8.43
2019-03-29T17:55:53.156Z,8.67
2019-03-29T18:00:56.019Z,9.00
2019-03-29T18:05:58.929Z,9.13
2019-03-29T18:11:01.983Z,8.37
2019-03-29T18:16:05.109Z,8.10
2019-03-29T18:21:09.936Z,7.73
2019-03-29T18:26:15.736Z,6.97
2019-03-29T18:48:49.759Z,7.67
2019-03-29T18:54:04.399Z,7.43
2019-03-29T18:59:08.212Z,7.77
2019-03-29T19:04:12.095Z,7.70
2019-03-29T19:09:15.259Z,7.97
2019-03-29T19:14:18.109Z,7.47
2019-03-29T19:19:21.203Z,8.13
2019-03-29T19:24:24.549Z,8.30
2019-03-29T19:29:27.839Z,7.10
2019-03-29T19:34:30.796Z,7.13
2019-03-29T19:39:33.711Z,6.80
2019-03-29T19:44:36.913Z,8.33
2019-03-29T19:49:40.055Z,7.40
2019-03-29T19:54:43.052Z,7.67
2019-03-29T19:59:48.152Z,7.50
2019-03-29T20:10:14.847Z,9.07
2019-03-29T20:15:17.794Z,8.57
2019-03-29T20:20:25.283Z,8.27
2019-03-29T20:25:28.255Z,8.40
2019-03-29T20:30:31.103Z,8.87
2019-03-29T20:35:34.087Z,9.30
2019-03-29T20:40:37.026Z,11.63
2019-03-29T20:45:41.011Z,10.00
2019-03-29T20:50:44.830Z,9.13
2019-03-29T20:55:47.771Z,10.00
2019-03-29T21:00:50.691Z,9.23
2019-03-29T21:05:53.699Z,8.73
2019-03-29T21:10:56.706Z,8.43
2019-03-29T21:15:59.803Z,9.33
2019-03-29T21:21:04.217Z,8.97
2019-03-29T21:26:07.207Z,8.83
2019-03-29T21:31:10.482Z,10.53
2019-03-29T21:36:13.680Z,10.13
2019-03-29T21:41:17.591Z,10.43
2019-03-29T21:46:20.725Z,10.13
2019-03-29T21:51:24.874Z,10.27
2019-03-29T21:56:28.972Z,10.50
2019-03-29T22:01:33.830Z,10.17
2019-03-29T22:06:36.695Z,10.17
2019-03-29T22:11:39.876Z,10.13
2019-03-29T22:16:43.686Z,10.20
2019-03-29T22:21:47.697Z,9.73
2019-03-29T22:26:50.586Z,10.53
2019-03-29T22:31:54.147Z,10.50
2019-03-29T22:36:57.572Z,10.40
2019-03-29T22:42:00.719Z,9.60
2019-03-29T22:47:03.712Z,11.00
2019-03-29T22:52:07.274Z,10.03
2019-03-29T22:57:10.172Z,10.07
2019-03-29T23:02:14.166Z,10.53
2019-03-29T23:07:17.088Z,11.27
2019-03-29T23:12:20.055Z,11.07
2019-03-29T23:17:22.988Z,11.07
2019-03-29T23:22:27.006Z,10.77
2019-03-29T23:27:29.936Z,11.30
2019-03-29T23:32:32.883Z,11.20
2019-03-29T23:37:35.898Z,10.90
2019-03-29T23:42:39.024Z,11.97
2019-03-29T23:47:42.275Z,11.47
2019-03-29T23:52:45.585Z,10.47
2019-03-29T23:57:48.583Z,11.43
